sensor_id;sensor_type;location;lat;lon;timestamp;P1;durP1;ratioP1;P2;durP2;ratioP2
17310;SDS011;8773;43.300;0.394;2022-08-04T00:01:57;6.82;;;6.18;;
17310;SDS011;8773;43.300;0.394;2022-08-04T00:04:31;6.40;;;5.82;;
17310;SDS011;8773;43.300;0.394;2022-08-04T00:07:06;6.85;;;6.18;;
17310;SDS011;8773;43.300;0.394;2022-08-04T00:09:38;7.50;;;6.40;;
17310;SDS011;8773;43.300;0.394;2022-08-04T00:12:15;6.80;;;6.25;;
17310;SDS011;8773;43.300;0.394;2022-08-04T00:14:48;7.85;;;6.10;;
17310;SDS011;8773;43.300;0.394;2022-08-04T00:17:18;7.47;;;6.72;;
17310;SDS011;8773;43.300;0.394;2022-08-04T00:19:48;8.15;;;5.85;;
17310;SDS011;8773;43.300;0.394;2022-08-04T00:22:25;6.93;;;6.10;;
17310;SDS011;8773;43.300;0.394;2022-08-04T00:24:55;6.97;;;6.53;;
17310;SDS011;8773;43.300;0.394;2022-08-04T00:27:24;7.45;;;6.75;;
17310;SDS011;8773;43.300;0.394;2022-08-04T00:29:55;8.25;;;6.45;;
17310;SDS011;8773;43.300;0.394;2022-08-04T00:32:23;9.30;;;6.93;;
17310;SDS011;8773;43.300;0.394;2022-08-04T00:35:00;6.53;;;5.85;;
17310;SDS011;8773;43.300;0.394;2022-08-04T00:37:29;6.88;;;6.20;;
17310;SDS011;8773;43.300;0.394;2022-08-04T00:40:00;7.50;;;6.72;;
17310;SDS011;8773;43.300;0.394;2022-08-04T00:42:41;6.93;;;5.95;;
17310;SDS011;8773;43.300;0.394;2022-08-04T00:45:43;7.55;;;6.75;;
17310;SDS011;8773;43.300;0.394;2022-08-04T00:48:55;10.25;;;6.75;;
17310;SDS011;8773;43.300;0.394;2022-08-04T00:51:46;6.88;;;6.22;;
17310;SDS011;8773;43.300;0.394;2022-08-04T00:54:53;7.50;;;6.53;;
17310;SDS011;8773;43.300;0.394;2022-08-04T00:57:49;8.60;;;6.30;;
17310;SDS011;8773;43.300;0.394;2022-08-04T01:00:32;6.82;;;6.18;;
17310;SDS011;8773;43.300;0.394;2022-08-04T01:03:13;7.10;;;6.47;;
17310;SDS011;8773;43.300;0.394;2022-08-04T01:05:52;6.55;;;5.68;;
17310;SDS011;8773;43.300;0.394;2022-08-04T01:08:34;7.85;;;7.05;;
17310;SDS011;8773;43.300;0.394;2022-08-04T01:11:15;7.90;;;6.28;;
17310;SDS011;8773;43.300;0.394;2022-08-04T01:13:55;7.47;;;6.75;;
17310;SDS011;8773;43.300;0.394;2022-08-04T01:16:33;7.55;;;6.80;;
17310;SDS011;8773;43.300;0.394;2022-08-04T01:19:07;10.80;;;6.45;;
17310;SDS011;8773;43.300;0.394;2022-08-04T01:21:55;8.40;;;6.85;;
17310;SDS011;8773;43.300;0.394;2022-08-04T01:24:44;9.13;;;6.38;;
17310;SDS011;8773;43.300;0.394;2022-08-04T01:27:32;7.13;;;6.40;;
17310;SDS011;8773;43.300;0.394;2022-08-04T01:30:16;8.10;;;6.25;;
17310;SDS011;8773;43.300;0.394;2022-08-04T01:32:46;8.52;;;6.95;;
17310;SDS011;8773;43.300;0.394;2022-08-04T01:35:20;8.88;;;7.53;;
17310;SDS011;8773;43.300;0.394;2022-08-04T01:38:12;8.25;;;7.35;;
17310;SDS011;8773;43.300;0.394;2022-08-04T01:40:47;8.30;;;7.40;;
17310;SDS011;8773;43.300;0.394;2022-08-04T01:43:20;10.00;;;7.07;;
17310;SDS011;8773;43.300;0.394;2022-08-04T01:45:56;12.15;;;6.70;;
17310;SDS011;8773;43.300;0.394;2022-08-04T01:48:26;7.80;;;7.00;;
17310;SDS011;8773;43.300;0.394;2022-08-04T01:50:56;10.57;;;7.63;;
17310;SDS011;8773;43.300;0.394;2022-08-04T01:53:28;8.00;;;7.20;;
17310;SDS011;8773;43.300;0.394;2022-08-04T01:55:58;7.88;;;6.75;;
17310;SDS011;8773;43.300;0.394;2022-08-04T01:58:29;7.47;;;6.72;;
17310;SDS011;8773;43.300;0.394;2022-08-04T02:01:01;9.13;;;6.57;;
17310;SDS011;8773;43.300;0.394;2022-08-04T02:03:34;8.43;;;7.47;;
17310;SDS011;8773;43.300;0.394;2022-08-04T02:06:28;9.02;;;7.07;;
17310;SDS011;8773;43.300;0.394;2022-08-04T02:09:02;10.05;;;6.82;;
17310;SDS011;8773;43.300;0.394;2022-08-04T02:11:39;7.85;;;7.00;;
17310;SDS011;8773;43.300;0.394;2022-08-04T02:14:10;10.98;;;7.20;;
17310;SDS011;8773;43.300;0.394;2022-08-04T02:17:07;9.27;;;7.40;;
17310;SDS011;8773;43.300;0.394;2022-08-04T02:19:42;8.52;;;7.30;;
17310;SDS011;8773;43.300;0.394;2022-08-04T02:22:22;7.95;;;6.97;;
17310;SDS011;8773;43.300;0.394;2022-08-04T02:24:57;13.02;;;8.13;;
17310;SDS011;8773;43.300;0.394;2022-08-04T02:27:39;11.20;;;7.80;;
17310;SDS011;8773;43.300;0.394;2022-08-04T02:30:28;8.70;;;6.95;;
17310;SDS011;8773;43.300;0.394;2022-08-04T02:33:02;12.25;;;7.60;;
17310;SDS011;8773;43.300;0.394;2022-08-04T02:35:34;9.80;;;7.30;;
17310;SDS011;8773;43.300;0.394;2022-08-04T02:38:10;11.00;;;7.45;;
17310;SDS011;8773;43.300;0.394;2022-08-04T02:40:52;14.25;;;7.55;;
17310;SDS011;8773;43.300;0.394;2022-08-04T02:43:26;15.25;;;8.18;;
17310;SDS011;8773;43.300;0.394;2022-08-04T02:46:16;8.23;;;6.97;;
17310;SDS011;8773;43.300;0.394;2022-08-04T02:48:47;12.27;;;6.72;;
17310;SDS011;8773;43.300;0.394;2022-08-04T02:51:20;14.30;;;8.05;;
17310;SDS011;8773;43.300;0.394;2022-08-04T02:53:52;8.52;;;6.95;;
17310;SDS011;8773;43.300;0.394;2022-08-04T02:56:22;10.50;;;6.78;;
17310;SDS011;8773;43.300;0.394;2022-08-04T02:58:52;8.15;;;6.78;;
17310;SDS011;8773;43.300;0.394;2022-08-04T03:01:23;8.57;;;7.10;;
17310;SDS011;8773;43.300;0.394;2022-08-04T03:04:05;8.93;;;6.15;;
17310;SDS011;8773;43.300;0.394;2022-08-04T03:07:02;7.13;;;6.43;;
17310;SDS011;8773;43.300;0.394;2022-08-04T03:13:15;7.00;;;5.90;;
17310;SDS011;8773;43.300;0.394;2022-08-04T03:16:11;7.55;;;5.90;;
17310;SDS011;8773;43.300;0.394;2022-08-04T03:19:18;8.35;;;6.40;;
17310;SDS011;8773;43.300;0.394;2022-08-04T03:28:53;11.43;;;7.30;;
17310;SDS011;8773;43.300;0.394;2022-08-04T03:32:16;7.50;;;6.80;;
17310;SDS011;8773;43.300;0.394;2022-08-04T03:35:13;7.63;;;6.40;;
17310;SDS011;8773;43.300;0.394;2022-08-04T03:38:02;8.57;;;6.80;;
17310;SDS011;8773;43.300;0.394;2022-08-04T03:40:49;7.15;;;6.20;;
17310;SDS011;8773;43.300;0.394;2022-08-04T03:44:08;9.30;;;6.55;;
17310;SDS011;8773;43.300;0.394;2022-08-04T03:50:31;6.13;;;5.55;;
17310;SDS011;8773;43.300;0.394;2022-08-04T03:54:05;6.97;;;6.22;;
17310;SDS011;8773;43.300;0.394;2022-08-04T03:56:50;7.20;;;6.45;;
17310;SDS011;8773;43.300;0.394;2022-08-04T03:59:39;7.22;;;6.25;;
17310;SDS011;8773;43.300;0.394;2022-08-04T04:02:33;7.10;;;6.40;;
17310;SDS011;8773;43.300;0.394;2022-08-04T04:08:53;9.75;;;7.03;;
17310;SDS011;8773;43.300;0.394;2022-08-04T04:14:54;7.57;;;6.85;;
17310;SDS011;8773;43.300;0.394;2022-08-04T04:17:44;6.80;;;6.22;;
17310;SDS011;8773;43.300;0.394;2022-08-04T04:23:59;7.82;;;6.90;;
17310;SDS011;8773;43.300;0.394;2022-08-04T04:26:37;8.88;;;7.22;;
17310;SDS011;8773;43.300;0.394;2022-08-04T04:29:28;9.43;;;6.60;;
17310;SDS011;8773;43.300;0.394;2022-08-04T04:32:21;8.15;;;6.22;;
17310;SDS011;8773;43.300;0.394;2022-08-04T04:35:02;8.98;;;6.40;;
17310;SDS011;8773;43.300;0.394;2022-08-04T04:37:48;8.02;;;6.80;;
17310;SDS011;8773;43.300;0.394;2022-08-04T04:40:30;7.47;;;6.68;;
17310;SDS011;8773;43.300;0.394;2022-08-04T04:43:18;9.18;;;7.05;;
17310;SDS011;8773;43.300;0.394;2022-08-04T04:46:20;8.77;;;6.65;;
17310;SDS011;8773;43.300;0.394;2022-08-04T04:48:57;12.07;;;6.78;;
17310;SDS011;8773;43.300;0.394;2022-08-04T04:51:32;8.52;;;5.90;;
17310;SDS011;8773;43.300;0.394;2022-08-04T04:54:10;7.20;;;6.47;;
17310;SDS011;8773;43.300;0.394;2022-08-04T04:56:50;8.25;;;6.47;;
17310;SDS011;8773;43.300;0.394;2022-08-04T04:59:26;8.10;;;6.43;;
17310;SDS011;8773;43.300;0.394;2022-08-04T05:05:14;6.72;;;6.20;;
17310;SDS011;8773;43.300;0.394;2022-08-04T05:07:55;13.27;;;7.35;;
17310;SDS011;8773;43.300;0.394;2022-08-04T05:14:12;11.10;;;6.75;;
17310;SDS011;8773;43.300;0.394;2022-08-04T05:17:09;8.70;;;7.05;;
17310;SDS011;8773;43.300;0.394;2022-08-04T05:19:44;7.05;;;6.40;;
17310;SDS011;8773;43.300;0.394;2022-08-04T05:22:21;9.25;;;6.80;;
17310;SDS011;8773;43.300;0.394;2022-08-04T05:24:58;6.65;;;6.00;;
17310;SDS011;8773;43.300;0.394;2022-08-04T05:27:30;11.65;;;7.40;;
17310;SDS011;8773;43.300;0.394;2022-08-04T05:30:07;11.82;;;9.57;;
17310;SDS011;8773;43.300;0.394;2022-08-04T05:32:45;9.68;;;7.03;;
17310;SDS011;8773;43.300;0.394;2022-08-04T05:35:26;8.02;;;7.22;;
17310;SDS011;8773;43.300;0.394;2022-08-04T05:38:19;8.93;;;7.03;;
17310;SDS011;8773;43.300;0.394;2022-08-04T05:40:50;12.65;;;6.88;;
17310;SDS011;8773;43.300;0.394;2022-08-04T05:43:19;10.02;;;6.32;;
17310;SDS011;8773;43.300;0.394;2022-08-04T05:45:50;9.25;;;6.97;;
17310;SDS011;8773;43.300;0.394;2022-08-04T05:48:19;9.55;;;6.22;;
17310;SDS011;8773;43.300;0.394;2022-08-04T05:50:48;12.80;;;7.60;;
17310;SDS011;8773;43.300;0.394;2022-08-04T05:53:16;13.25;;;7.88;;
17310;SDS011;8773;43.300;0.394;2022-08-04T05:55:45;9.23;;;7.13;;
17310;SDS011;8773;43.300;0.394;2022-08-04T05:58:25;9.63;;;6.63;;
17310;SDS011;8773;43.300;0.394;2022-08-04T06:00:57;8.95;;;6.82;;
17310;SDS011;8773;43.300;0.394;2022-08-04T06:03:27;8.85;;;6.93;;
17310;SDS011;8773;43.300;0.394;2022-08-04T06:05:56;17.88;;;7.70;;
17310;SDS011;8773;43.300;0.394;2022-08-04T06:08:26;7.60;;;6.85;;
17310;SDS011;8773;43.300;0.394;2022-08-04T06:10:56;15.35;;;7.60;;
17310;SDS011;8773;43.300;0.394;2022-08-04T06:13:27;7.60;;;6.70;;
17310;SDS011;8773;43.300;0.394;2022-08-04T06:16:17;7.40;;;6.72;;
17310;SDS011;8773;43.300;0.394;2022-08-04T06:18:57;6.45;;;5.85;;
17310;SDS011;8773;43.300;0.394;2022-08-04T06:21:49;8.43;;;6.90;;
17310;SDS011;8773;43.300;0.394;2022-08-04T06:24:21;12.35;;;7.70;;
17310;SDS011;8773;43.300;0.394;2022-08-04T06:26:51;8.25;;;6.75;;
17310;SDS011;8773;43.300;0.394;2022-08-04T06:29:20;9.38;;;6.35;;
17310;SDS011;8773;43.300;0.394;2022-08-04T06:31:55;8.70;;;7.13;;
17310;SDS011;8773;43.300;0.394;2022-08-04T06:34:45;7.53;;;6.72;;
17310;SDS011;8773;43.300;0.394;2022-08-04T06:37:14;11.07;;;6.30;;
17310;SDS011;8773;43.300;0.394;2022-08-04T06:40:02;8.05;;;6.72;;
17310;SDS011;8773;43.300;0.394;2022-08-04T06:42:54;7.78;;;6.97;;
17310;SDS011;8773;43.300;0.394;2022-08-04T06:45:22;9.07;;;6.55;;
17310;SDS011;8773;43.300;0.394;2022-08-04T06:47:53;10.77;;;7.00;;
17310;SDS011;8773;43.300;0.394;2022-08-04T06:50:22;7.82;;;6.63;;
17310;SDS011;8773;43.300;0.394;2022-08-04T06:53:11;10.27;;;6.82;;
17310;SDS011;8773;43.300;0.394;2022-08-04T06:55:40;6.43;;;5.85;;
17310;SDS011;8773;43.300;0.394;2022-08-04T06:58:10;8.27;;;6.35;;
17310;SDS011;8773;43.300;0.394;2022-08-04T07:00:40;6.45;;;5.65;;
17310;SDS011;8773;43.300;0.394;2022-08-04T07:03:12;11.50;;;6.85;;
17310;SDS011;8773;43.300;0.394;2022-08-04T07:05:42;12.80;;;6.90;;
17310;SDS011;8773;43.300;0.394;2022-08-04T07:08:12;8.07;;;6.53;;
17310;SDS011;8773;43.300;0.394;2022-08-04T07:10:41;8.43;;;6.47;;
17310;SDS011;8773;43.300;0.394;2022-08-04T07:13:11;11.10;;;6.60;;
17310;SDS011;8773;43.300;0.394;2022-08-04T07:15:40;6.65;;;6.05;;
17310;SDS011;8773;43.300;0.394;2022-08-04T07:18:11;9.05;;;6.10;;
17310;SDS011;8773;43.300;0.394;2022-08-04T07:20:40;8.40;;;6.20;;
17310;SDS011;8773;43.300;0.394;2022-08-04T07:23:09;9.88;;;5.78;;
17310;SDS011;8773;43.300;0.394;2022-08-04T07:25:42;6.50;;;5.97;;
17310;SDS011;8773;43.300;0.394;2022-08-04T07:28:36;7.28;;;6.40;;
17310;SDS011;8773;43.300;0.394;2022-08-04T07:31:08;8.00;;;5.80;;
17310;SDS011;8773;43.300;0.394;2022-08-04T07:33:58;6.45;;;5.82;;
17310;SDS011;8773;43.300;0.394;2022-08-04T07:36:46;7.20;;;6.47;;
17310;SDS011;8773;43.300;0.394;2022-08-04T07:39:16;9.90;;;5.63;;
17310;SDS011;8773;43.300;0.394;2022-08-04T07:41:54;5.85;;;5.43;;
17310;SDS011;8773;43.300;0.394;2022-08-04T07:44:24;7.82;;;6.60;;
17310;SDS011;8773;43.300;0.394;2022-08-04T07:46:52;5.63;;;5.25;;
17310;SDS011;8773;43.300;0.394;2022-08-04T07:49:22;6.18;;;5.68;;
17310;SDS011;8773;43.300;0.394;2022-08-04T07:52:12;6.78;;;6.15;;
17310;SDS011;8773;43.300;0.394;2022-08-04T07:54:41;8.70;;;5.72;;
17310;SDS011;8773;43.300;0.394;2022-08-04T07:57:09;6.30;;;5.00;;
17310;SDS011;8773;43.300;0.394;2022-08-04T08:00:05;5.07;;;4.68;;
17310;SDS011;8773;43.300;0.394;2022-08-04T08:02:35;6.65;;;6.13;;
17310;SDS011;8773;43.300;0.394;2022-08-04T08:05:06;8.23;;;5.63;;
17310;SDS011;8773;43.300;0.394;2022-08-04T08:07:36;9.10;;;6.03;;
17310;SDS011;8773;43.300;0.394;2022-08-04T08:10:17;6.60;;;5.47;;
17310;SDS011;8773;43.300;0.394;2022-08-04T08:12:46;7.78;;;5.82;;
17310;SDS011;8773;43.300;0.394;2022-08-04T08:15:17;6.90;;;4.97;;
17310;SDS011;8773;43.300;0.394;2022-08-04T08:17:45;5.50;;;5.00;;
17310;SDS011;8773;43.300;0.394;2022-08-04T08:20:28;7.10;;;5.50;;
17310;SDS011;8773;43.300;0.394;2022-08-04T08:22:59;5.85;;;5.35;;
17310;SDS011;8773;43.300;0.394;2022-08-04T08:25:29;6.47;;;5.78;;
17310;SDS011;8773;43.300;0.394;2022-08-04T08:27:58;6.47;;;5.88;;
17310;SDS011;8773;43.300;0.394;2022-08-04T08:30:29;6.25;;;5.68;;
17310;SDS011;8773;43.300;0.394;2022-08-04T08:32:59;8.45;;;5.70;;
17310;SDS011;8773;43.300;0.394;2022-08-04T08:35:34;6.20;;;5.60;;
17310;SDS011;8773;43.300;0.394;2022-08-04T08:38:27;10.20;;;5.63;;
17310;SDS011;8773;43.300;0.394;2022-08-04T08:41:11;7.05;;;5.82;;
17310;SDS011;8773;43.300;0.394;2022-08-04T08:43:56;5.65;;;5.32;;
17310;SDS011;8773;43.300;0.394;2022-08-04T08:47:00;5.93;;;5.30;;
17310;SDS011;8773;43.300;0.394;2022-08-04T08:49:50;7.80;;;5.95;;
17310;SDS011;8773;43.300;0.394;2022-08-04T08:52:46;5.88;;;5.43;;
17310;SDS011;8773;43.300;0.394;2022-08-04T08:55:36;7.88;;;6.13;;
17310;SDS011;8773;43.300;0.394;2022-08-04T08:58:18;6.10;;;5.32;;
17310;SDS011;8773;43.300;0.394;2022-08-04T09:00:55;5.97;;;5.47;;
17310;SDS011;8773;43.300;0.394;2022-08-04T09:03:37;5.20;;;4.80;;
17310;SDS011;8773;43.300;0.394;2022-08-04T09:06:30;6.00;;;5.22;;
17310;SDS011;8773;43.300;0.394;2022-08-04T09:09:24;5.82;;;5.53;;
17310;SDS011;8773;43.300;0.394;2022-08-04T09:12:14;6.65;;;6.05;;
17310;SDS011;8773;43.300;0.394;2022-08-04T09:14:53;5.88;;;5.47;;
17310;SDS011;8773;43.300;0.394;2022-08-04T09:17:32;6.45;;;5.95;;
17310;SDS011;8773;43.300;0.394;2022-08-04T09:20:09;5.85;;;5.40;;
17310;SDS011;8773;43.300;0.394;2022-08-04T09:22:44;6.20;;;5.72;;
17310;SDS011;8773;43.300;0.394;2022-08-04T09:25:20;5.65;;;5.25;;
17310;SDS011;8773;43.300;0.394;2022-08-04T09:27:52;6.10;;;5.50;;
17310;SDS011;8773;43.300;0.394;2022-08-04T09:30:22;6.38;;;5.90;;
17310;SDS011;8773;43.300;0.394;2022-08-04T09:33:03;6.13;;;5.70;;
17310;SDS011;8773;43.300;0.394;2022-08-04T09:35:45;5.68;;;5.18;;
17310;SDS011;8773;43.300;0.394;2022-08-04T09:38:19;6.15;;;5.55;;
17310;SDS011;8773;43.300;0.394;2022-08-04T09:40:56;7.32;;;6.63;;
17310;SDS011;8773;43.300;0.394;2022-08-04T09:43:48;5.57;;;5.20;;
17310;SDS011;8773;43.300;0.394;2022-08-04T09:46:49;6.18;;;5.63;;
17310;SDS011;8773;43.300;0.394;2022-08-04T09:49:22;5.72;;;5.43;;
17310;SDS011;8773;43.300;0.394;2022-08-04T09:51:57;6.80;;;6.20;;
17310;SDS011;8773;43.300;0.394;2022-08-04T09:54:38;5.88;;;5.38;;
17310;SDS011;8773;43.300;0.394;2022-08-04T09:57:13;6.03;;;5.63;;
17310;SDS011;8773;43.300;0.394;2022-08-04T09:59:53;6.07;;;5.57;;
17310;SDS011;8773;43.300;0.394;2022-08-04T10:02:29;5.78;;;5.32;;
17310;SDS011;8773;43.300;0.394;2022-08-04T10:05:03;5.78;;;5.38;;
17310;SDS011;8773;43.300;0.394;2022-08-04T10:07:44;5.80;;;5.35;;
17310;SDS011;8773;43.300;0.394;2022-08-04T10:10:45;6.55;;;5.95;;
17310;SDS011;8773;43.300;0.394;2022-08-04T10:13:24;6.68;;;6.28;;
17310;SDS011;8773;43.300;0.394;2022-08-04T10:16:12;5.85;;;5.47;;
17310;SDS011;8773;43.300;0.394;2022-08-04T10:18:56;6.53;;;6.10;;
17310;SDS011;8773;43.300;0.394;2022-08-04T10:21:36;6.15;;;5.65;;
17310;SDS011;8773;43.300;0.394;2022-08-04T10:24:32;6.13;;;5.60;;
17310;SDS011;8773;43.300;0.394;2022-08-04T10:27:11;7.05;;;6.28;;
17310;SDS011;8773;43.300;0.394;2022-08-04T10:29:45;7.95;;;6.55;;
17310;SDS011;8773;43.300;0.394;2022-08-04T10:32:14;5.95;;;5.55;;
17310;SDS011;8773;43.300;0.394;2022-08-04T10:34:50;7.05;;;6.45;;
17310;SDS011;8773;43.300;0.394;2022-08-04T10:37:30;6.60;;;6.20;;
17310;SDS011;8773;43.300;0.394;2022-08-04T10:40:25;6.35;;;5.88;;
17310;SDS011;8773;43.300;0.394;2022-08-04T10:43:08;5.93;;;5.43;;
17310;SDS011;8773;43.300;0.394;2022-08-04T10:45:54;6.20;;;5.70;;
17310;SDS011;8773;43.300;0.394;2022-08-04T10:48:27;5.80;;;5.40;;
17310;SDS011;8773;43.300;0.394;2022-08-04T10:51:03;6.53;;;5.93;;
17310;SDS011;8773;43.300;0.394;2022-08-04T10:53:38;6.30;;;5.80;;
17310;SDS011;8773;43.300;0.394;2022-08-04T10:56:08;10.00;;;7.13;;
17310;SDS011;8773;43.300;0.394;2022-08-04T10:58:49;6.35;;;5.97;;
17310;SDS011;8773;43.300;0.394;2022-08-04T11:01:24;6.25;;;5.75;;
17310;SDS011;8773;43.300;0.394;2022-08-04T11:04:20;5.55;;;5.15;;
17310;SDS011;8773;43.300;0.394;2022-08-04T11:06:54;5.38;;;5.10;;
17310;SDS011;8773;43.300;0.394;2022-08-04T11:09:24;6.65;;;6.15;;
17310;SDS011;8773;43.300;0.394;2022-08-04T11:11:55;5.47;;;5.13;;
17310;SDS011;8773;43.300;0.394;2022-08-04T11:14:32;6.28;;;5.82;;
17310;SDS011;8773;43.300;0.394;2022-08-04T11:17:06;5.82;;;5.47;;
17310;SDS011;8773;43.300;0.394;2022-08-04T11:19:40;8.13;;;5.80;;
17310;SDS011;8773;43.300;0.394;2022-08-04T11:22:22;6.57;;;6.05;;
17310;SDS011;8773;43.300;0.394;2022-08-04T11:24:53;6.35;;;5.75;;
17310;SDS011;8773;43.300;0.394;2022-08-04T11:27:36;5.63;;;5.32;;
17310;SDS011;8773;43.300;0.394;2022-08-04T11:30:11;6.05;;;5.55;;
17310;SDS011;8773;43.300;0.394;2022-08-04T11:32:43;5.57;;;5.20;;
17310;SDS011;8773;43.300;0.394;2022-08-04T11:35:23;7.30;;;6.60;;
17310;SDS011;8773;43.300;0.394;2022-08-04T11:37:56;6.68;;;6.18;;
17310;SDS011;8773;43.300;0.394;2022-08-04T11:40:32;6.10;;;5.80;;
17310;SDS011;8773;43.300;0.394;2022-08-04T11:43:31;5.88;;;5.53;;
17310;SDS011;8773;43.300;0.394;2022-08-04T11:46:27;6.63;;;6.03;;
17310;SDS011;8773;43.300;0.394;2022-08-04T11:49:04;6.85;;;6.35;;
17310;SDS011;8773;43.300;0.394;2022-08-04T11:51:35;6.47;;;6.07;;
17310;SDS011;8773;43.300;0.394;2022-08-04T11:54:04;6.30;;;5.80;;
17310;SDS011;8773;43.300;0.394;2022-08-04T11:56:32;6.80;;;6.50;;
17310;SDS011;8773;43.300;0.394;2022-08-04T11:59:04;7.28;;;6.53;;
17310;SDS011;8773;43.300;0.394;2022-08-04T12:01:35;7.93;;;7.22;;
17310;SDS011;8773;43.300;0.394;2022-08-04T12:04:16;7.43;;;6.82;;
17310;SDS011;8773;43.300;0.394;2022-08-04T12:06:54;7.68;;;7.05;;
17310;SDS011;8773;43.300;0.394;2022-08-04T12:09:46;7.35;;;6.85;;
17310;SDS011;8773;43.300;0.394;2022-08-04T12:12:20;7.43;;;6.82;;
17310;SDS011;8773;43.300;0.394;2022-08-04T12:14:56;8.35;;;7.82;;
17310;SDS011;8773;43.300;0.394;2022-08-04T12:17:34;7.10;;;6.70;;
17310;SDS011;8773;43.300;0.394;2022-08-04T12:20:20;7.82;;;7.38;;
17310;SDS011;8773;43.300;0.394;2022-08-04T12:23:06;8.02;;;7.50;;
17310;SDS011;8773;43.300;0.394;2022-08-04T12:25:43;8.27;;;7.00;;
17310;SDS011;8773;43.300;0.394;2022-08-04T12:28:15;8.15;;;7.55;;
17310;SDS011;8773;43.300;0.394;2022-08-04T12:30:51;7.53;;;6.95;;
17310;SDS011;8773;43.300;0.394;2022-08-04T12:33:34;8.02;;;7.43;;
17310;SDS011;8773;43.300;0.394;2022-08-04T12:36:30;7.68;;;6.85;;
17310;SDS011;8773;43.300;0.394;2022-08-04T12:39:05;7.93;;;7.32;;
17310;SDS011;8773;43.300;0.394;2022-08-04T12:41:39;7.88;;;7.20;;
17310;SDS011;8773;43.300;0.394;2022-08-04T12:44:12;7.03;;;6.63;;
17310;SDS011;8773;43.300;0.394;2022-08-04T12:47:01;7.00;;;6.50;;
17310;SDS011;8773;43.300;0.394;2022-08-04T12:49:58;7.10;;;6.65;;
17310;SDS011;8773;43.300;0.394;2022-08-04T12:52:32;7.65;;;6.85;;
17310;SDS011;8773;43.300;0.394;2022-08-04T12:55:28;7.45;;;6.85;;
17310;SDS011;8773;43.300;0.394;2022-08-04T12:58:00;6.90;;;6.50;;
17310;SDS011;8773;43.300;0.394;2022-08-04T13:00:32;6.63;;;6.22;;
17310;SDS011;8773;43.300;0.394;2022-08-04T13:03:10;7.13;;;6.72;;
17310;SDS011;8773;43.300;0.394;2022-08-04T13:05:42;6.50;;;6.10;;
17310;SDS011;8773;43.300;0.394;2022-08-04T13:08:13;7.35;;;6.70;;
17310;SDS011;8773;43.300;0.394;2022-08-04T13:10:47;7.50;;;7.00;;
17310;SDS011;8773;43.300;0.394;2022-08-04T13:13:18;7.07;;;6.68;;
17310;SDS011;8773;43.300;0.394;2022-08-04T13:15:55;8.00;;;7.35;;
17310;SDS011;8773;43.300;0.394;2022-08-04T13:18:27;7.95;;;7.40;;
17310;SDS011;8773;43.300;0.394;2022-08-04T13:21:07;8.23;;;6.88;;
17310;SDS011;8773;43.300;0.394;2022-08-04T13:23:49;8.02;;;7.30;;
17310;SDS011;8773;43.300;0.394;2022-08-04T13:26:45;7.38;;;6.88;;
17310;SDS011;8773;43.300;0.394;2022-08-04T13:29:21;7.22;;;6.80;;
17310;SDS011;8773;43.300;0.394;2022-08-04T13:32:14;7.00;;;6.50;;
17310;SDS011;8773;43.300;0.394;2022-08-04T13:34:46;6.50;;;6.00;;
17310;SDS011;8773;43.300;0.394;2022-08-04T13:37:21;6.82;;;6.22;;
17310;SDS011;8773;43.300;0.394;2022-08-04T13:39:54;6.40;;;5.90;;
17310;SDS011;8773;43.300;0.394;2022-08-04T13:42:25;7.07;;;6.38;;
17310;SDS011;8773;43.300;0.394;2022-08-04T13:44:55;6.80;;;6.30;;
17310;SDS011;8773;43.300;0.394;2022-08-04T13:47:47;6.10;;;5.70;;
17310;SDS011;8773;43.300;0.394;2022-08-04T13:50:29;6.15;;;5.75;;
17310;SDS011;8773;43.300;0.394;2022-08-04T13:52:59;6.38;;;5.97;;
17310;SDS011;8773;43.300;0.394;2022-08-04T13:55:30;5.82;;;5.40;;
17310;SDS011;8773;43.300;0.394;2022-08-04T13:58:01;5.82;;;5.40;;
17310;SDS011;8773;43.300;0.394;2022-08-04T14:00:43;6.18;;;5.30;;
17310;SDS011;8773;43.300;0.394;2022-08-04T14:03:19;6.20;;;5.70;;
17310;SDS011;8773;43.300;0.394;2022-08-04T14:06:09;5.35;;;5.05;;
17310;SDS011;8773;43.300;0.394;2022-08-04T14:08:48;5.72;;;5.07;;
17310;SDS011;8773;43.300;0.394;2022-08-04T14:12:06;6.00;;;5.45;;
17310;SDS011;8773;43.300;0.394;2022-08-04T14:15:30;5.70;;;5.30;;
17310;SDS011;8773;43.300;0.394;2022-08-04T14:18:40;5.80;;;5.35;;
17310;SDS011;8773;43.300;0.394;2022-08-04T14:21:29;5.60;;;5.30;;
17310;SDS011;8773;43.300;0.394;2022-08-04T14:24:03;5.60;;;5.30;;
17310;SDS011;8773;43.300;0.394;2022-08-04T14:26:32;6.30;;;5.53;;
17310;SDS011;8773;43.300;0.394;2022-08-04T14:29:08;5.90;;;5.55;;
17310;SDS011;8773;43.300;0.394;2022-08-04T14:31:58;5.70;;;5.20;;
17310;SDS011;8773;43.300;0.394;2022-08-04T14:34:38;5.38;;;4.97;;
17310;SDS011;8773;43.300;0.394;2022-08-04T14:37:11;5.68;;;5.13;;
17310;SDS011;8773;43.300;0.394;2022-08-04T14:39:45;5.22;;;4.88;;
17310;SDS011;8773;43.300;0.394;2022-08-04T14:42:40;4.95;;;4.72;;
17310;SDS011;8773;43.300;0.394;2022-08-04T14:45:33;5.75;;;5.45;;
17310;SDS011;8773;43.300;0.394;2022-08-04T14:48:04;5.40;;;5.00;;
17310;SDS011;8773;43.300;0.394;2022-08-04T14:50:35;4.93;;;4.63;;
17310;SDS011;8773;43.300;0.394;2022-08-04T14:53:06;4.70;;;4.40;;
17310;SDS011;8773;43.300;0.394;2022-08-04T14:55:38;5.72;;;5.25;;
17310;SDS011;8773;43.300;0.394;2022-08-04T14:58:15;4.85;;;4.45;;
17310;SDS011;8773;43.300;0.394;2022-08-04T15:01:05;4.85;;;4.65;;
17310;SDS011;8773;43.300;0.394;2022-08-04T15:03:38;5.25;;;4.93;;
17310;SDS011;8773;43.300;0.394;2022-08-04T15:06:18;5.70;;;5.30;;
17310;SDS011;8773;43.300;0.394;2022-08-04T15:08:48;7.03;;;5.60;;
17310;SDS011;8773;43.300;0.394;2022-08-04T15:11:17;5.35;;;5.07;;
17310;SDS011;8773;43.300;0.394;2022-08-04T15:13:49;5.82;;;5.32;;
17310;SDS011;8773;43.300;0.394;2022-08-04T15:16:18;5.25;;;4.85;;
17310;SDS011;8773;43.300;0.394;2022-08-04T15:19:00;6.43;;;5.80;;
17310;SDS011;8773;43.300;0.394;2022-08-04T15:21:48;6.03;;;5.53;;
17310;SDS011;8773;43.300;0.394;2022-08-04T15:24:38;5.45;;;4.97;;
17310;SDS011;8773;43.300;0.394;2022-08-04T15:27:33;5.40;;;4.97;;
17310;SDS011;8773;43.300;0.394;2022-08-04T15:30:30;4.93;;;4.68;;
17310;SDS011;8773;43.300;0.394;2022-08-04T15:33:21;5.47;;;5.10;;
17310;SDS011;8773;43.300;0.394;2022-08-04T15:36:20;5.55;;;5.05;;
17310;SDS011;8773;43.300;0.394;2022-08-04T15:39:16;5.63;;;5.22;;
17310;SDS011;8773;43.300;0.394;2022-08-04T15:42:13;5.47;;;4.97;;
17310;SDS011;8773;43.300;0.394;2022-08-04T15:45:11;5.22;;;4.93;;
17310;SDS011;8773;43.300;0.394;2022-08-04T15:48:23;8.15;;;5.10;;
17310;SDS011;8773;43.300;0.394;2022-08-04T15:51:14;5.18;;;4.88;;
17310;SDS011;8773;43.300;0.394;2022-08-04T15:54:20;6.07;;;5.68;;
17310;SDS011;8773;43.300;0.394;2022-08-04T15:57:22;5.95;;;5.45;;
17310;SDS011;8773;43.300;0.394;2022-08-04T16:04:24;5.13;;;4.88;;
17310;SDS011;8773;43.300;0.394;2022-08-04T16:07:03;5.25;;;4.97;;
17310;SDS011;8773;43.300;0.394;2022-08-04T16:09:37;5.38;;;5.10;;
17310;SDS011;8773;43.300;0.394;2022-08-04T16:15:42;5.70;;;5.20;;
17310;SDS011;8773;43.300;0.394;2022-08-04T16:18:37;5.13;;;4.75;;
17310;SDS011;8773;43.300;0.394;2022-08-04T16:21:17;5.13;;;4.70;;
17310;SDS011;8773;43.300;0.394;2022-08-04T16:23:55;4.90;;;4.60;;
17310;SDS011;8773;43.300;0.394;2022-08-04T16:26:43;5.07;;;4.70;;
17310;SDS011;8773;43.300;0.394;2022-08-04T16:29:37;4.55;;;4.18;;
17310;SDS011;8773;43.300;0.394;2022-08-04T16:32:10;4.85;;;4.40;;
17310;SDS011;8773;43.300;0.394;2022-08-04T16:34:41;4.97;;;4.50;;
17310;SDS011;8773;43.300;0.394;2022-08-04T16:37:23;4.80;;;4.45;;
17310;SDS011;8773;43.300;0.394;2022-08-04T16:43:06;5.63;;;5.22;;
17310;SDS011;8773;43.300;0.394;2022-08-04T16:45:48;6.05;;;5.25;;
17310;SDS011;8773;43.300;0.394;2022-08-04T16:48:37;5.72;;;5.32;;
17310;SDS011;8773;43.300;0.394;2022-08-04T16:51:20;5.47;;;5.15;;
17310;SDS011;8773;43.300;0.394;2022-08-04T16:54:35;5.63;;;5.20;;
17310;SDS011;8773;43.300;0.394;2022-08-04T16:57:32;5.50;;;5.20;;
17310;SDS011;8773;43.300;0.394;2022-08-04T17:00:30;5.30;;;5.00;;
17310;SDS011;8773;43.300;0.394;2022-08-04T17:03:04;5.00;;;4.65;;